Time;durP1;ratioP1;P1;durP2;ratioP2;P2;SDS_P1;SDS_P2;PMS_P1;PMS_P2;Temp;Humidity;BMP_temperature;BMP_pressure;BME280_temperature;BME280_humidity;BME280_pressure;Samples;Min_cycle;Max_cycle;Signal;HPM_P1;HPM_P2
2022/12/06 00:02:22;;;;;;;18.30;4.68;;;;;;;6.06;93.65;97193.88;5116476;28;20077;-62
2022/12/06 00:04:49;;;;;;;8.60;4.85;;;;;;;6.10;93.78;97200.75;5116028;28;20050;-62
2022/12/06 00:07:16;;;;;;;37.13;4.40;;;;;;;6.17;93.55;97199.81;5116253;28;20055;-62
2022/12/06 00:09:44;;;;;;;45.20;5.95;;;;;;;6.23;93.34;97201.50;5116042;28;20044;-63
2022/12/06 00:12:11;;;;;;;13.43;5.05;;;;;;;6.29;93.18;97195.41;5115787;28;20052;-62
2022/12/06 00:14:38;;;;;;;149.80;10.23;;;;;;;6.33;92.76;97191.88;5115745;28;20044;-62
2022/12/06 00:17:07;;;;;;;147.07;6.88;;;;;;;6.38;92.57;97191.84;5115893;28;20043;-62
2022/12/06 00:19:34;;;;;;;30.45;5.68;;;;;;;6.38;92.17;97203.06;5115829;28;20131;-62
2022/12/06 00:22:01;;;;;;;82.18;6.47;;;;;;;6.35;92.48;97202.25;5115633;28;20047;-62
2022/12/06 00:24:28;;;;;;;90.15;6.97;;;;;;;6.37;92.28;97196.16;5115668;28;20075;-62
2022/12/06 00:26:56;;;;;;;77.75;5.63;;;;;;;6.39;92.14;97194.44;5115698;28;20044;-62
2022/12/06 00:29:24;;;;;;;34.58;5.28;;;;;;;6.40;92.03;97187.47;5115480;28;20400;-62
2022/12/06 00:31:51;;;;;;;49.38;5.00;;;;;;;6.44;91.75;97190.03;5115543;28;20059;-62
2022/12/06 00:34:20;;;;;;;146.63;7.35;;;;;;;6.44;91.39;97183.94;5115478;28;20050;-62
2022/12/06 00:36:47;;;;;;;41.00;5.00;;;;;;;6.38;91.67;97181.44;5115470;28;20052;-62
2022/12/06 00:39:17;;;;;;;69.57;5.65;;;;;;;6.36;91.79;97176.25;5115434;28;20046;-62
2022/12/06 00:41:45;;;;;;;86.43;6.05;;;;;;;6.29;92.14;97172.84;5115245;28;20120;-62
2022/12/06 00:44:12;;;;;;;42.38;6.13;;;;;;;6.25;92.17;97173.78;5115316;28;20040;-62
2022/12/06 00:46:39;;;;;;;55.17;5.82;;;;;;;6.26;92.54;97165.09;5115426;28;20599;-62
2022/12/06 00:49:08;;;;;;;20.58;5.15;;;;;;;6.27;92.69;97168.56;5115231;28;20047;-62
2022/12/06 00:51:37;;;;;;;55.10;7.18;;;;;;;6.26;92.63;97170.28;5115025;28;20044;-62
2022/12/06 00:54:05;;;;;;;50.63;7.35;;;;;;;6.22;92.74;97160.81;5115130;28;20126;-62
2022/12/06 00:56:34;;;;;;;32.17;6.15;;;;;;;6.27;92.69;97165.97;5115035;28;20139;-62
2022/12/06 00:59:02;;;;;;;39.30;6.25;;;;;;;6.24;92.72;97166.88;5114981;28;20048;-62
2022/12/06 01:01:32;;;;;;;23.10;6.35;;;;;;;6.12;92.76;97161.78;5114375;28;20047;-62
2022/12/06 01:04:01;;;;;;;39.58;7.30;;;;;;;6.13;93.18;97155.69;5114968;28;20058;-62
2022/12/06 01:06:31;;;;;;;34.85;6.35;;;;;;;6.14;93.30;97165.25;5114770;28;20050;-62
2022/12/06 01:09:02;;;;;;;40.65;6.85;;;;;;;6.10;93.35;97159.19;5114763;28;20046;-62
2022/12/06 01:11:30;;;;;;;26.17;6.63;;;;;;;6.12;93.67;97156.59;5114700;28;20054;-62
2022/12/06 01:13:57;;;;;;;43.72;7.05;;;;;;;6.16;93.40;97158.28;5114563;28;20549;-62
2022/12/06 01:16:27;;;;;;;94.15;7.43;;;;;;;6.20;93.24;97154.75;5114516;28;20047;-62
2022/12/06 01:18:56;;;;;;;36.25;6.15;;;;;;;6.22;93.18;97152.13;5114617;28;20100;-62
2022/12/06 01:21:24;;;;;;;27.95;6.95;;;;;;;6.25;93.12;97152.09;5114485;28;20116;-62
2022/12/06 01:23:53;;;;;;;14.32;6.40;;;;;;;6.29;92.99;97148.63;5114692;28;20044;-62
2022/12/06 01:26:23;;;;;;;97.35;8.35;;;;;;;6.34;92.73;97152.00;5114489;28;20055;-62
2022/12/06 01:28:51;;;;;;;80.38;7.47;;;;;;;6.41;92.50;97148.47;5114387;28;20054;-62
2022/12/06 01:31:19;;;;;;;49.90;7.18;;;;;;;6.42;92.56;97147.56;5114482;28;20051;-62
2022/12/06 01:33:46;;;;;;;31.80;6.88;;;;;;;6.44;92.50;97152.75;5114294;28;20052;-62
2022/12/06 01:36:17;;;;;;;56.60;6.63;;;;;;;6.47;92.15;97147.53;5114188;28;20044;-62
2022/12/06 01:38:45;;;;;;;115.00;7.45;;;;;;;6.45;92.08;97147.53;5114229;28;20075;-62
2022/12/06 01:41:12;;;;;;;51.25;7.00;;;;;;;6.48;91.83;97146.66;5114152;28;20165;-62
2022/12/06 01:43:42;;;;;;;44.35;5.95;;;;;;;6.50;91.69;97138.84;5114031;28;20083;-62
2022/12/06 01:46:28;;;;;;;124.15;6.57;;;;;;;6.44;91.56;97138.03;5114099;28;20047;-62
2022/12/06 01:49:05;;;;;;;8.70;5.30;;;;;;;6.47;91.43;97134.53;5114081;28;20040;-62
2022/12/06 01:51:32;;;;;;;140.02;8.10;;;;;;;6.45;91.68;97133.72;5113948;28;20542;-62
2022/12/06 01:54:04;;;;;;;103.70;9.55;;;;;;;6.40;91.59;97133.75;5114047;28;20101;-62
2022/12/06 01:56:31;;;;;;;118.28;5.93;;;;;;;6.38;91.67;97135.50;5113829;28;20485;-62
2022/12/06 01:59:01;;;;;;;74.75;6.20;;;;;;;6.33;91.63;97124.31;5113996;28;20090;-62
2022/12/06 02:01:30;;;;;;;72.15;5.80;;;;;;;6.32;91.62;97122.56;5113925;28;20126;-62
2022/12/06 02:04:00;;;;;;;61.47;5.90;;;;;;;6.30;91.94;97119.16;5113743;28;20126;-62
2022/12/06 02:06:29;;;;;;;100.55;6.63;;;;;;;6.31;91.95;97116.53;5113821;28;20127;-62
2022/12/06 02:08:58;;;;;;;93.18;5.45;;;;;;;6.30;91.92;97121.75;5113697;28;20044;-62
2022/12/06 02:11:25;;;;;;;143.88;7.93;;;;;;;6.35;92.26;97119.09;5113777;28;20047;-62
2022/12/06 02:13:53;;;;;;;57.03;5.65;;;;;;;6.38;92.28;97116.47;5112722;28;20096;-62
2022/12/06 02:16:52;;;;;;;25.73;5.30;;;;;;;6.36;92.04;97110.41;5113632;28;20086;-62
2022/12/06 02:19:43;;;;;;;36.90;5.18;;;;;;;6.30;91.92;97109.59;5106714;28;20110;-62
2022/12/06 02:22:19;;;;;;;35.95;5.05;;;;;;;6.32;91.96;97100.06;5113608;28;20051;-62
2022/12/06 02:25:00;;;;;;;32.58;4.90;;;;;;;6.30;92.17;97103.56;5113539;28;20130;-62
2022/12/06 02:27:50;;;;;;;27.08;5.88;;;;;;;6.21;92.12;97101.94;5113471;28;20048;-62
2022/12/06 02:30:31;;;;;;;24.02;6.70;;;;;;;6.15;92.24;97089.88;5113570;28;20100;-62
2022/12/06 02:33:03;;;;;;;53.58;7.22;;;;;;;6.02;92.99;97089.09;5113482;28;20079;-62
2022/12/06 02:35:34;;;;;;;14.90;6.57;;;;;;;6.00;93.49;97097.81;5113475;28;20079;-62
2022/12/06 02:38:07;;;;;;;12.10;5.22;;;;;;;5.97;93.83;97090.03;5113386;28;20092;-62
2022/12/06 02:40:40;;;;;;;34.17;5.60;;;;;;;5.90;94.14;97092.69;5113092;28;20051;-62
2022/12/06 02:43:12;;;;;;;20.98;6.53;;;;;;;5.88;94.34;97091.88;5113627;28;20054;-62
2022/12/06 02:45:45;;;;;;;19.95;6.40;;;;;;;5.97;94.53;97090.91;5113388;28;20044;-62
2022/12/06 02:48:14;;;;;;;16.33;4.82;;;;;;;5.85;94.20;97094.50;5113346;28;20062;-62
2022/12/06 02:50:47;;;;;;;10.93;4.00;;;;;;;5.84;94.73;97094.50;5113432;28;20051;-62
2022/12/06 02:53:18;;;;;;;13.77;5.78;;;;;;;5.87;94.71;97097.91;5113259;28;20476;-62
2022/12/06 02:55:46;;;;;;;9.07;5.10;;;;;;;6.00;94.72;97103.88;5113375;28;20123;-62
2022/12/06 02:58:13;;;;;;;12.18;5.47;;;;;;;6.05;94.48;97102.09;5113339;28;20468;-62
2022/12/06 03:00:43;;;;;;;16.90;5.05;;;;;;;6.13;94.00;97106.34;5113389;28;20481;-62
2022/12/06 03:03:34;;;;;;;17.10;5.55;;;;;;;6.21;94.00;97116.66;5113265;28;20047;-62
2022/12/06 03:06:34;;;;;;;15.95;6.28;;;;;;;6.26;93.52;97113.13;5113171;28;20055;-62
2022/12/06 03:09:12;;;;;;;13.90;5.63;;;;;;;6.31;93.02;97115.66;5113102;28;20082;-63
2022/12/06 03:11:51;;;;;;;27.02;6.15;;;;;;;6.33;92.98;97108.72;5113116;28;20048;-62
2022/12/06 03:14:24;;;;;;;18.88;5.82;;;;;;;6.37;92.88;97114.72;5113021;28;20055;-62
2022/12/06 03:17:01;;;;;;;47.10;6.03;;;;;;;6.35;93.04;97113.91;5112970;28;20473;-62
2022/12/06 03:19:29;;;;;;;89.20;6.90;;;;;;;6.36;92.95;97105.22;5112924;28;20090;-62
2022/12/06 03:22:01;;;;;;;88.10;6.53;;;;;;;6.40;92.43;97099.97;5113377;28;20052;-62
2022/12/06 03:24:31;;;;;;;59.30;4.88;;;;;;;6.42;92.25;97103.41;5113154;28;20052;-62
2022/12/06 03:27:01;;;;;;;73.90;4.88;;;;;;;6.42;91.68;97105.16;5116710;28;20454;-62
2022/12/06 03:29:31;;;;;;;99.55;5.60;;;;;;;6.39;92.15;97115.59;5116672;28;20093;-62
2022/12/06 03:32:03;;;;;;;58.92;3.80;;;;;;;6.37;91.97;97105.22;5116561;28;20043;-62
2022/12/06 03:34:32;;;;;;;54.03;4.47;;;;;;;6.34;91.90;97104.38;5116509;28;20138;-62
2022/12/06 03:37:02;;;;;;;18.52;3.35;;;;;;;6.35;91.59;97111.31;5116553;28;20040;-62
2022/12/06 03:39:35;;;;;;;99.65;5.70;;;;;;;6.32;91.80;97102.66;5116540;28;20056;-62
2022/12/06 03:42:02;;;;;;;99.60;4.75;;;;;;;6.36;91.46;97100.03;5116563;28;20062;-62
2022/12/06 03:44:30;;;;;;;49.70;2.92;;;;;;;6.37;91.46;97097.41;5116402;28;20050;-62
2022/12/06 03:47:06;;;;;;;20.20;2.85;;;;;;;6.38;91.49;97109.50;5116404;28;20130;-62
2022/12/06 03:49:37;;;;;;;53.85;3.30;;;;;;;6.40;91.47;97101.69;5116301;28;20075;-62
2022/12/06 03:52:04;;;;;;;;;;;;;;;6.42;91.46;97103.41;5116630;28;20055;-62
2022/12/06 03:54:31;;;;;;;37.33;3.53;;;;;;;6.41;91.50;97111.25;5116243;28;20274;-62
2022/12/06 03:56:58;;;;;;;65.53;7.30;;;;;;;6.43;91.47;97097.34;5116176;28;20048;-62
2022/12/06 03:59:26;;;;;;;260.85;13.98;;;;;;;6.45;91.43;97094.72;5116151;28;20400;-62
2022/12/06 04:01:53;;;;;;;86.85;6.70;;;;;;;6.49;91.35;97092.94;5116053;28;20047;-62
2022/12/06 04:04:22;;;;;;;82.45;6.53;;;;;;;6.52;91.29;97092.88;5116146;28;20059;-62
2022/12/06 04:06:50;;;;;;;45.30;8.43;;;;;;;6.54;91.07;97091.13;5116106;28;20039;-62
2022/12/06 04:12:01;;;;;;;96.30;5.25;;;;;;;6.57;90.68;97091.94;5115954;28;20128;-62
2022/12/06 04:14:31;;;;;;;16.52;3.47;;;;;;;6.59;90.63;97094.53;5116019;28;20067;-62
2022/12/06 04:19:44;;;;;;;20.17;3.35;;;;;;;6.59;90.60;97097.13;5116094;28;20058;-62
2022/12/06 04:25:00;;;;;;;38.38;3.70;;;;;;;6.59;90.33;97093.69;5099811;28;20054;-62
2022/12/06 04:38:42;;;;;;;15.10;3.75;;;;;;;6.60;90.20;97104.06;5115072;28;20499;-62
2022/12/06 04:41:09;;;;;;;83.03;6.35;;;;;;;6.55;90.25;97098.06;5115149;28;20052;-62
2022/12/06 04:43:41;;;;;;;29.50;4.97;;;;;;;6.52;90.54;97095.50;5115334;28;20050;-62
2022/12/06 04:46:09;;;;;;;51.42;5.00;;;;;;;6.52;90.60;97093.75;5115462;28;20130;-62
2022/12/06 04:48:35;;;;;;;58.70;4.80;;;;;;;6.55;90.83;97100.66;5115256;28;20048;-62
2022/12/06 04:51:07;;;;;;;216.18;7.10;;;;;;;6.55;90.60;97100.66;5115118;28;20078;-62
2022/12/06 04:53:34;;;;;;;204.00;8.13;;;;;;;6.48;90.87;97094.69;5114923;28;20488;-62
2022/12/06 04:56:02;;;;;;;119.97;5.60;;;;;;;6.48;91.10;97096.41;5114992;28;20048;-62
2022/12/06 04:58:29;;;;;;;141.75;5.47;;;;;;;6.51;91.08;97097.25;5114987;28;20044;-62
2022/12/06 05:00:56;;;;;;;148.60;5.57;;;;;;;6.56;90.69;97094.56;5114970;28;20438;-62
2022/12/06 05:03:24;;;;;;;258.33;12.90;;;;;;;6.55;90.53;97088.53;5115075;28;20044;-62
2022/12/06 05:05:52;;;;;;;148.55;7.30;;;;;;;6.53;90.75;97087.66;5114761;28;20083;-62
2022/12/06 05:08:20;;;;;;;196.30;11.00;;;;;;;6.55;90.85;97091.13;5114834;28;20047;-62
2022/12/06 05:10:51;;;;;;;31.25;3.85;;;;;;;6.56;90.91;97095.44;5114666;28;20130;-62
2022/12/06 05:13:20;;;;;;;83.88;5.68;;;;;;;6.59;90.80;97097.13;5114635;28;20051;-63
2022/12/06 05:15:51;;;;;;;65.50;5.93;;;;;;;6.57;90.69;97094.53;5114738;28;20401;-62
2022/12/06 05:18:19;;;;;;;37.30;5.38;;;;;;;6.52;90.93;97088.56;5114694;28;20485;-62
2022/12/06 05:20:46;;;;;;;34.83;5.68;;;;;;;6.50;91.11;97092.91;5114412;28;20093;-62
2022/12/06 05:23:14;;;;;;;142.30;6.53;;;;;;;6.47;91.23;97094.69;5114552;28;20050;-63
2022/12/06 05:25:42;;;;;;;150.38;6.93;;;;;;;6.46;91.59;97088.63;5114444;28;20047;-62
2022/12/06 05:28:10;;;;;;;152.80;6.40;;;;;;;6.45;91.32;97085.16;5114536;28;20050;-62
2022/12/06 05:30:37;;;;;;;76.78;4.32;;;;;;;6.45;91.36;97086.94;5114341;28;20055;-62
2022/12/06 05:33:04;;;;;;;90.95;4.88;;;;;;;6.46;91.36;97083.44;5114162;28;20482;-62
2022/12/06 05:35:31;;;;;;;203.50;7.03;;;;;;;6.43;91.48;97081.75;5114314;28;20093;-63
2022/12/06 05:37:58;;;;;;;177.10;6.68;;;;;;;6.45;91.58;97084.31;5114241;28;20134;-62
2022/12/06 05:40:26;;;;;;;155.27;9.23;;;;;;;6.47;91.58;97084.31;5113930;28;20072;-62
2022/12/06 05:42:54;;;;;;;205.45;6.63;;;;;;;6.49;91.57;97077.31;5114057;28;20480;-63
2022/12/06 05:45:22;;;;;;;93.68;4.60;;;;;;;6.52;91.29;97075.56;5114056;28;20047;-63
2022/12/06 05:47:49;;;;;;;45.58;4.10;;;;;;;6.53;91.21;97081.63;5113782;28;20473;-63
2022/12/06 05:50:17;;;;;;;121.40;6.53;;;;;;;6.54;91.03;97073.78;5114045;28;20039;-63
2022/12/06 05:52:44;;;;;;;66.47;4.53;;;;;;;6.57;91.02;97078.94;5113936;28;20444;-62
2022/12/06 05:55:12;;;;;;;35.33;2.92;;;;;;;6.59;90.70;97072.88;5113888;28;20405;-63
2022/12/06 05:57:39;;;;;;;14.77;2.80;;;;;;;6.60;90.65;97078.06;5113884;28;20122;-63
2022/12/06 06:00:09;;;;;;;109.72;6.18;;;;;;;6.62;90.74;97076.28;5113699;28;20039;-63
2022/12/06 06:02:36;;;;;;;34.25;3.17;;;;;;;6.64;90.34;97077.13;5113709;28;20059;-63
2022/12/06 06:05:04;;;;;;;8.00;2.20;;;;;;;6.65;90.31;97080.59;5113778;28;20097;-63
2022/12/06 06:07:31;;;;;;;63.63;4.82;;;;;;;6.66;90.20;97088.38;5113806;28;20051;-63
2022/12/06 06:09:58;;;;;;;52.33;3.80;;;;;;;6.65;90.33;97089.25;5113666;28;20071;-63
2022/12/06 06:12:25;;;;;;;37.95;3.53;;;;;;;6.67;90.55;97095.31;5113561;28;20495;-63
2022/12/06 06:14:52;;;;;;;26.30;3.25;;;;;;;6.69;90.74;97096.13;5113567;28;20073;-63
2022/12/06 06:17:22;;;;;;;30.70;3.25;;;;;;;6.62;90.48;97078.88;5113659;28;20040;-63
2022/12/06 06:19:49;;;;;;;55.88;4.55;;;;;;;6.71;90.56;97093.50;5113667;28;20477;-62
2022/12/06 06:22:17;;;;;;;11.45;2.40;;;;;;;6.73;90.71;97090.88;5113653;28;20135;-63
2022/12/06 06:24:45;;;;;;;4.32;2.78;;;;;;;6.73;90.42;97090.88;5113566;28;20479;-62
2022/12/06 06:27:12;;;;;;;5.47;3.17;;;;;;;6.72;90.12;97083.97;5113478;28;20044;-62
2022/12/06 06:29:39;;;;;;;2.67;2.30;;;;;;;6.73;89.77;97089.16;5113406;28;20075;-62
2022/12/06 06:32:06;;;;;;;7.80;2.60;;;;;;;6.69;89.97;97090.09;5113458;28;20112;-62
2022/12/06 06:34:35;;;;;;;2.58;2.22;;;;;;;6.70;89.98;97087.47;5113545;28;20382;-62
2022/12/06 06:37:02;;;;;;;3.22;2.70;;;;;;;6.70;90.00;97089.19;5113484;28;20056;-62
2022/12/06 06:39:29;;;;;;;3.53;2.72;;;;;;;6.70;90.25;97089.19;5113452;28;20400;-62
2022/12/06 06:41:56;;;;;;;2.78;2.58;;;;;;;6.74;90.21;97093.47;5113202;28;20455;-62
2022/12/06 06:44:24;;;;;;;2.90;2.42;;;;;;;6.72;90.26;97090.03;5113375;28;20051;-63
2022/12/06 06:46:51;;;;;;;2.75;2.28;;;;;;;6.76;90.21;97098.63;5113425;28;20101;-62
2022/12/06 06:49:18;;;;;;;3.72;2.65;;;;;;;6.79;90.49;97091.66;5113363;28;20077;-63
2022/12/06 06:51:47;;;;;;;3.38;2.70;;;;;;;6.85;90.26;97095.06;5113194;28;20484;-63
2022/12/06 06:54:15;;;;;;;4.32;3.38;;;;;;;6.83;90.17;97090.75;5113113;28;20058;-62
2022/12/06 06:56:42;;;;;;;10.10;3.45;;;;;;;6.80;90.41;97089.91;5113321;28;20086;-63
2022/12/06 06:59:09;;;;;;;5.53;3.90;;;;;;;6.80;90.82;97092.50;5113260;28;20129;-63
2022/12/06 07:01:37;;;;;;;5.97;4.05;;;;;;;6.85;91.07;97092.44;5117023;28;20071;-63
2022/12/06 07:04:04;;;;;;;6.90;4.35;;;;;;;6.87;90.93;97088.97;5117439;28;20062;-63
2022/12/06 07:06:31;;;;;;;5.47;4.50;;;;;;;6.82;90.84;97086.44;5117279;28;20058;-63
2022/12/06 07:09:00;;;;;;;7.57;4.30;;;;;;;6.87;91.27;97088.97;5117215;28;20056;-63
2022/12/06 07:11:27;;;;;;;8.23;5.38;;;;;;;6.83;91.44;97088.13;5117207;28;20071;-63
2022/12/06 07:13:54;;;;;;;13.00;4.10;;;;;;;6.90;91.18;97082.84;5116984;28;20051;-63
2022/12/06 07:16:21;;;;;;;7.53;4.90;;;;;;;6.88;90.91;97076.81;5116916;28;20073;-63
2022/12/06 07:18:48;;;;;;;8.32;5.57;;;;;;;6.81;91.15;97076.03;5116847;28;20055;-63
2022/12/06 07:21:17;;;;;;;9.07;5.95;;;;;;;6.82;90.99;97076.03;5116840;28;20097;-63
2022/12/06 07:23:44;;;;;;;8.70;5.60;;;;;;;6.87;90.98;97075.09;5116805;28;20057;-63
2022/12/06 07:26:20;;;;;;;8.88;6.03;;;;;;;6.84;90.89;97076.00;5116777;28;20047;-63
2022/12/06 07:28:49;;;;;;;10.95;7.45;;;;;;;6.92;90.63;97076.75;5116723;28;20047;-63
2022/12/06 07:31:18;;;;;;;8.52;6.82;;;;;;;6.95;90.64;97078.44;5116618;28;20048;-62
2022/12/06 07:33:46;;;;;;;9.38;6.90;;;;;;;6.98;90.50;97077.53;5116518;28;20138;-62
2022/12/06 07:36:14;;;;;;;8.80;7.03;;;;;;;6.92;90.64;97070.66;5116597;28;20093;-62
2022/12/06 07:38:42;;;;;;;8.93;6.38;;;;;;;6.95;90.72;97076.69;5116655;28;20065;-62
2022/12/06 07:46:39;;;;;;;7.53;5.70;;;;;;;7.05;90.60;97076.56;5116709;28;20055;-62
2022/12/06 07:49:07;;;;;;;6.88;5.63;;;;;;;7.07;90.39;97078.25;5116418;28;20071;-62
2022/12/06 07:51:34;;;;;;;8.27;5.05;;;;;;;7.05;90.33;97084.38;5116359;28;20075;-62
2022/12/06 07:54:02;;;;;;;6.05;4.97;;;;;;;7.08;89.73;97077.34;5116107;28;20047;-62
2022/12/06 07:56:29;;;;;;;7.30;5.85;;;;;;;7.07;89.90;97078.25;5116136;28;20138;-62
2022/12/06 07:58:58;;;;;;;9.13;6.53;;;;;;;7.17;88.85;97068.53;5116128;28;20047;-62
2022/12/06 08:01:25;;;;;;;8.13;6.35;;;;;;;7.25;87.76;97068.44;5116185;28;20040;-62
2022/12/06 08:03:54;;;;;;;7.72;6.82;;;;;;;7.25;88.17;97065.81;5116143;28;20535;-62
2022/12/06 08:06:22;;;;;;;6.32;5.03;;;;;;;7.30;87.30;97058.81;5116016;28;20052;-62
2022/12/06 08:08:49;;;;;;;5.72;4.88;;;;;;;7.31;86.75;97065.72;5115957;28;20091;-62
2022/12/06 08:11:17;;;;;;;6.45;5.10;;;;;;;7.37;87.30;97063.94;5115772;28;20464;-62
2022/12/06 08:13:44;;;;;;;5.13;4.53;;;;;;;7.36;88.11;97064.78;5116036;28;20473;-62
2022/12/06 08:16:13;;;;;;;6.03;4.68;;;;;;;7.40;88.67;97066.44;5115811;28;20048;-62
2022/12/06 08:18:41;;;;;;;4.95;4.40;;;;;;;7.48;88.10;97061.13;5115840;28;20051;-62
2022/12/06 08:21:08;;;;;;;7.55;6.45;;;;;;;7.55;88.19;97066.19;5115895;28;20059;-62
2022/12/06 08:23:36;;;;;;;5.50;4.30;;;;;;;7.52;87.78;97070.59;5115724;28;20480;-62
2022/12/06 08:26:06;;;;;;;5.47;4.07;;;;;;;7.49;88.19;97078.47;5115702;28;20100;-62
2022/12/06 08:28:35;;;;;;;4.90;4.40;;;;;;;7.49;87.82;97071.50;5115621;28;20090;-62
2022/12/06 08:31:07;;;;;;;5.82;4.90;;;;;;;7.42;87.87;97072.50;5115543;28;20381;-62
2022/12/06 08:33:36;;;;;;;6.07;4.75;;;;;;;7.48;89.02;97068.94;5115477;28;20044;-62
2022/12/06 08:36:08;;;;;;;5.10;4.25;;;;;;;7.54;88.82;97066.22;5115537;28;20046;-62
2022/12/06 08:38:36;;;;;;;7.18;5.18;;;;;;;7.55;89.34;97070.53;5115488;28;20043;-62
2022/12/06 08:41:03;;;;;;;6.15;5.22;;;;;;;7.54;88.45;97061.88;5115170;28;20510;-62
2022/12/06 08:43:31;;;;;;;8.68;5.50;;;;;;;7.64;87.91;97052.16;5115239;28;20044;-62
2022/12/06 08:45:59;;;;;;;5.95;5.35;;;;;;;7.71;87.80;97047.72;5115233;28;20082;-62
2022/12/06 08:48:29;;;;;;;7.10;6.07;;;;;;;7.81;88.49;97048.38;5115255;28;20058;-62
2022/12/06 08:51:04;;;;;;;6.28;5.57;;;;;;;7.87;88.06;97035.25;5115155;28;20044;-62
2022/12/06 08:53:31;;;;;;;6.40;5.40;;;;;;;7.93;87.88;97029.06;5115174;28;20059;-62
2022/12/06 08:55:59;;;;;;;5.50;4.90;;;;;;;7.99;87.84;97025.47;5115037;28;20051;-62
2022/12/06 08:58:26;;;;;;;6.32;4.75;;;;;;;8.06;88.16;97025.31;5114928;28;20052;-62
2022/12/06 09:00:53;;;;;;;5.68;4.88;;;;;;;8.07;86.92;97019.22;5114990;28;20047;-62
2022/12/06 09:03:20;;;;;;;7.22;5.70;;;;;;;8.16;86.23;97014.72;5115033;28;20108;-62
2022/12/06 09:05:47;;;;;;;8.10;5.32;;;;;;;8.24;85.36;97023.22;5115022;28;20055;-62
2022/12/06 09:08:16;;;;;;;5.60;5.03;;;;;;;8.28;84.70;97013.59;5114876;28;20180;-62
2022/12/06 09:10:43;;;;;;;6.28;4.88;;;;;;;8.27;84.52;97022.28;5114823;28;20055;-62
2022/12/06 09:13:10;;;;;;;5.88;4.78;;;;;;;8.24;84.26;97018.00;5114693;28;20404;-62
2022/12/06 09:15:38;;;;;;;6.93;5.80;;;;;;;8.25;84.55;97011.88;5114540;28;20043;-63
2022/12/06 09:18:05;;;;;;;6.60;5.72;;;;;;;8.20;84.67;97006.81;5114689;28;20054;-62
2022/12/06 09:20:32;;;;;;;7.10;6.03;;;;;;;8.13;84.82;96999.97;5114540;28;20409;-62
2022/12/06 09:22:59;;;;;;;6.00;5.40;;;;;;;8.03;85.35;97001.94;5114070;28;20047;-62
2022/12/06 09:25:28;;;;;;;6.20;5.38;;;;;;;7.98;84.90;96995.97;5114398;28;20507;-62
2022/12/06 09:27:55;;;;;;;6.47;4.95;;;;;;;7.97;84.73;96992.50;5114535;28;20040;-63
2022/12/06 09:30:22;;;;;;;5.65;5.05;;;;;;;7.89;84.54;96990.94;5114425;28;20101;-63
2022/12/06 09:32:49;;;;;;;6.50;4.68;;;;;;;7.84;84.16;96986.69;5114486;28;20071;-63
2022/12/06 09:35:16;;;;;;;5.07;4.43;;;;;;;7.94;84.26;96984.75;5114207;28;20077;-63
2022/12/06 09:37:44;;;;;;;5.38;4.85;;;;;;;7.95;84.82;96981.25;5114302;28;20120;-63
2022/12/06 09:40:18;;;;;;;5.55;5.05;;;;;;;8.02;85.23;96979.38;5113872;28;20752;-61
2022/12/06 09:43:00;;;;;;;5.78;4.88;;;;;;;8.13;84.73;96979.13;5114114;28;20044;-64
2022/12/06 09:46:01;;;;;;;4.45;4.05;;;;;;;8.13;84.20;96973.91;5113967;28;20044;-63
2022/12/06 09:48:53;;;;;;;4.07;3.67;;;;;;;8.15;82.38;96959.13;5066412;28;20050;-63
2022/12/06 09:51:35;;;;;;;3.58;3.20;;;;;;;8.21;80.75;96965.94;5110732;28;20046;-63
2022/12/06 09:54:18;;;;;;;5.22;4.35;;;;;;;8.22;81.55;96958.09;5113903;28;20040;-63
2022/12/06 09:56:51;;;;;;;4.28;3.88;;;;;;;8.30;82.43;96960.53;5113937;28;20051;-63
2022/12/06 09:59:32;;;;;;;4.32;3.90;;;;;;;8.27;81.59;96955.38;5113897;28;20075;-63
2022/12/06 10:02:17;;;;;;;4.53;3.92;;;;;;;8.24;81.91;96945.03;5113869;28;20069;-63
2022/12/06 10:04:59;;;;;;;5.93;5.20;;;;;;;8.26;81.38;96945.00;5113723;28;20098;-63
2022/12/06 10:07:36;;;;;;;5.90;5.30;;;;;;;8.21;81.40;96934.66;5113869;28;20127;-63
2022/12/06 10:10:12;;;;;;;8.45;5.40;;;;;;;8.18;80.81;96926.91;5113708;28;20075;-63
2022/12/06 10:13:01;;;;;;;6.85;5.13;;;;;;;8.16;80.92;96928.72;5113654;28;20054;-63
2022/12/06 10:15:40;;;;;;;7.43;5.38;;;;;;;8.19;81.04;96920.84;5113617;28;20047;-63
2022/12/06 10:18:23;;;;;;;6.10;5.22;;;;;;;8.17;81.11;96925.22;5113579;28;20043;-62
2022/12/06 10:20:56;;;;;;;7.38;5.78;;;;;;;8.17;81.94;96925.22;5113656;28;20126;-62
2022/12/06 10:23:38;;;;;;;8.13;6.47;;;;;;;8.09;82.37;96920.16;5113528;28;20044;-62
2022/12/06 10:26:13;;;;;;;8.38;5.97;;;;;;;8.04;83.07;96922.03;5113604;28;20412;-62
2022/12/06 10:28:45;;;;;;;6.32;5.25;;;;;;;8.03;83.20;96920.28;5113427;28;20058;-62
2022/12/06 10:31:27;;;;;;;8.07;6.13;;;;;;;8.01;83.60;96917.72;5113501;28;20071;-62
2022/12/06 10:33:57;;;;;;;7.40;6.43;;;;;;;7.99;83.39;96918.66;5113542;28;20071;-62
2022/12/06 10:36:42;;;;;;;7.85;6.68;;;;;;;7.99;83.04;96916.91;5117225;28;20044;-62
2022/12/06 10:39:18;;;;;;;8.18;7.00;;;;;;;7.91;83.31;96909.25;5117667;28;20058;-62
2022/12/06 10:41:53;;;;;;;7.63;6.82;;;;;;;7.91;82.88;96905.78;5117573;28;20125;-62
2022/12/06 10:44:25;;;;;;;8.25;6.88;;;;;;;7.81;81.90;96908.59;5117587;28;20047;-62
2022/12/06 10:47:05;;;;;;;11.07;7.25;;;;;;;7.82;82.16;96907.69;5117595;28;20523;-62
2022/12/06 10:49:49;;;;;;;12.17;6.97;;;;;;;7.89;83.27;96908.41;5117516;28;20413;-62
2022/12/06 10:52:35;;;;;;;8.50;6.93;;;;;;;7.87;83.01;96906.75;5117479;28;20413;-63
2022/12/06 10:55:17;;;;;;;8.05;6.55;;;;;;;7.93;82.72;96906.63;5117230;28;20043;-62
2022/12/06 10:57:54;;;;;;;19.17;11.13;;;;;;;7.94;81.55;96896.16;5117438;28;20055;-62
2022/12/06 11:00:23;;;;;;;8.75;6.93;;;;;;;7.94;81.60;96896.16;5117305;28;20055;-62
2022/12/06 11:02:59;;;;;;;9.70;7.35;;;;;;;7.96;81.43;96890.91;5117196;28;20048;-62
2022/12/06 11:05:31;;;;;;;11.63;7.85;;;;;;;7.96;81.63;96885.72;5117226;28;20086;-62
2022/12/06 11:08:04;;;;;;;10.02;6.72;;;;;;;7.92;81.26;96879.69;5117327;28;20077;-63
2022/12/06 11:10:35;;;;;;;7.88;6.75;;;;;;;7.92;81.27;96874.47;5117091;28;20047;-62
2022/12/06 11:13:17;;;;;;;8.25;6.70;;;;;;;8.06;81.24;96878.53;5117239;28;20434;-62
2022/12/06 11:15:52;;;;;;;8.15;6.25;;;;;;;8.11;80.98;96878.44;5117050;28;20499;-62
2022/12/06 11:18:21;;;;;;;6.63;5.93;;;;;;;8.14;79.83;96871.41;5117035;28;20583;-62
2022/12/06 11:20:55;;;;;;;7.80;6.20;;;;;;;8.12;80.18;96862.75;5116985;28;20113;-62
2022/12/06 11:23:32;;;;;;;9.05;7.07;;;;;;;8.18;80.06;96857.41;5116806;28;20043;-63
2022/12/06 11:26:13;;;;;;;9.55;6.18;;;;;;;8.20;80.24;96850.44;5116900;28;20131;-62
2022/12/06 11:28:42;;;;;;;8.65;6.57;;;;;;;8.11;80.68;96853.25;5116822;28;20055;-62
2022/12/06 11:31:27;;;;;;;7.28;6.30;;;;;;;8.07;80.68;96849.84;5116704;28;20051;-62
2022/12/06 11:33:58;;;;;;;9.77;6.93;;;;;;;8.07;81.70;96846.41;5116640;28;20047;-62
2022/12/06 11:36:27;;;;;;;12.90;6.80;;;;;;;8.01;80.36;96856.97;5116499;28;20051;-62
2022/12/06 11:38:54;;;;;;;8.90;6.97;;;;;;;7.94;80.76;96849.28;5116561;28;20048;-62
2022/12/06 11:41:26;;;;;;;7.53;6.43;;;;;;;8.01;80.91;96847.38;5116272;28;20101;-62
2022/12/06 11:43:55;;;;;;;8.40;6.18;;;;;;;8.13;79.71;96846.22;5116524;28;20059;-62
2022/12/06 11:46:24;;;;;;;9.27;6.15;;;;;;;8.13;79.23;96838.41;5115803;28;20077;-62
2022/12/06 11:48:51;;;;;;;16.80;7.43;;;;;;;8.13;78.47;96837.56;5116357;28;20059;-62
2022/12/06 11:51:22;;;;;;;7.65;6.53;;;;;;;8.11;79.00;96834.13;5116278;28;20131;-62
2022/12/06 11:53:59;;;;;;;6.93;6.22;;;;;;;8.12;78.23;96828.06;5116284;28;20047;-63
2022/12/06 11:56:29;;;;;;;8.27;6.88;;;;;;;8.14;79.30;96821.03;5116220;28;20056;-62
2022/12/06 11:59:07;;;;;;;5.83;4.97;;;;;;;8.16;78.96;96819.25;5116445;28;20047;-62
2022/12/06 12:01:40;;;;;;;8.02;7.22;;;;;;;8.20;78.92;96819.16;5116745;28;20079;-62
2022/12/06 12:04:38;;;;;;;7.95;6.75;;;;;;;8.28;78.08;96820.72;5116190;28;20477;-62
2022/12/06 12:07:16;;;;;;;7.53;6.72;;;;;;;8.28;77.59;96824.16;5116158;28;20122;-62
2022/12/06 12:09:51;;;;;;;8.85;7.05;;;;;;;8.28;77.91;96813.72;5116026;28;20409;-62
2022/12/06 12:12:21;;;;;;;7.70;6.38;;;;;;;8.24;79.30;96814.72;5115976;28;20052;-62
2022/12/06 12:14:56;;;;;;;7.75;6.90;;;;;;;8.29;78.15;96812.88;5115785;28;20090;-63
2022/12/06 12:17:29;;;;;;;8.20;6.07;;;;;;;8.36;77.67;96812.72;5115950;28;20580;-63
2022/12/06 12:19:59;;;;;;;7.50;6.75;;;;;;;8.31;78.52;96816.28;5115870;28;20044;-62